sensor_id;sensor_type;location;lat;lon;timestamp;pressure;altitude;pressure_sealevel;temperature;humidity
81905;BME280;71370;-33.792;151.032;2023-07-24T00:00:43;102373.66;;;13.24;63.92
81905;BME280;71370;-33.792;151.032;2023-07-24T00:01:50;102372.97;;;13.28;63.31
81905;BME280;71370;-33.792;151.032;2023-07-24T00:02:57;102377.77;;;13.34;63.48
81905;BME280;71370;-33.792;151.032;2023-07-24T00:04:04;102377.08;;;13.40;63.15
81905;BME280;71370;-33.792;151.032;2023-07-24T00:05:11;102376.36;;;13.47;62.83
81905;BME280;71370;-33.792;151.032;2023-07-24T00:06:18;102373.54;;;13.55;62.60
81905;BME280;71370;-33.792;151.032;2023-07-24T00:07:26;102372.84;;;13.61;61.96
81905;BME280;71370;-33.792;151.032;2023-07-24T00:08:33;102374.09;;;13.67;62.00
81905;BME280;71370;-33.792;151.032;2023-07-24T00:09:40;102364.54;;;13.73;61.96
81905;BME280;71370;-33.792;151.032;2023-07-24T00:10:47;102369.30;;;13.79;61.97
81905;BME280;71370;-33.792;151.032;2023-07-24T00:11:54;102370.01;;;13.85;61.79
81905;BME280;71370;-33.792;151.032;2023-07-24T00:13:01;102368.06;;;13.90;61.57
81905;BME280;71370;-33.792;151.032;2023-07-24T00:14:09;102363.63;;;13.94;60.95
81905;BME280;71370;-33.792;151.032;2023-07-24T00:15:16;102367.16;;;13.98;60.58
81905;BME280;71370;-33.792;151.032;2023-07-24T00:16:24;102369.63;;;14.04;60.85
81905;BME280;71370;-33.792;151.032;2023-07-24T00:17:31;102369.79;;;14.11;60.68
81905;BME280;71370;-33.792;151.032;2023-07-24T00:18:38;102368.02;;;14.16;60.99
81905;BME280;71370;-33.792;151.032;2023-07-24T00:19:45;102366.94;;;14.23;60.77
81905;BME280;71370;-33.792;151.032;2023-07-24T00:20:52;102366.21;;;14.29;60.55
81905;BME280;71370;-33.792;151.032;2023-07-24T00:21:59;102364.77;;;14.36;60.44
81905;BME280;71370;-33.792;151.032;2023-07-24T00:23:06;102365.63;;;14.44;60.34
81905;BME280;71370;-33.792;151.032;2023-07-24T00:24:13;102371.45;;;14.51;59.85
81905;BME280;71370;-33.792;151.032;2023-07-24T00:25:20;102370.55;;;14.56;59.44
81905;BME280;71370;-33.792;151.032;2023-07-24T00:26:27;102367.73;;;14.61;59.58
81905;BME280;71370;-33.792;151.032;2023-07-24T00:27:34;102367.18;;;14.66;59.64
81905;BME280;71370;-33.792;151.032;2023-07-24T00:28:41;102362.92;;;14.66;59.57
81905;BME280;71370;-33.792;151.032;2023-07-24T00:29:49;102361.67;;;14.70;59.34
81905;BME280;71370;-33.792;151.032;2023-07-24T00:30:56;102364.13;;;14.74;59.28
81905;BME280;71370;-33.792;151.032;2023-07-24T00:32:03;102364.46;;;14.78;59.14
81905;BME280;71370;-33.792;151.032;2023-07-24T00:33:11;102362.33;;;14.82;58.75
81905;BME280;71370;-33.792;151.032;2023-07-24T00:34:18;102365.84;;;14.88;58.89
81905;BME280;71370;-33.792;151.032;2023-07-24T00:35:26;102363.67;;;14.93;58.94
81905;BME280;71370;-33.792;151.032;2023-07-24T00:36:33;102363.10;;;15.00;58.74
81905;BME280;71370;-33.792;151.032;2023-07-24T00:37:40;102362.18;;;15.07;58.69
81905;BME280;71370;-33.792;151.032;2023-07-24T00:38:47;102360.53;;;15.14;58.67
81905;BME280;71370;-33.792;151.032;2023-07-24T00:39:54;102357.33;;;15.17;58.75
81905;BME280;71370;-33.792;151.032;2023-07-24T00:41:01;102361.38;;;15.22;58.19
81905;BME280;71370;-33.792;151.032;2023-07-24T00:42:08;102360.46;;;15.27;57.84
81905;BME280;71370;-33.792;151.032;2023-07-24T00:43:15;102361.14;;;15.31;57.93
81905;BME280;71370;-33.792;151.032;2023-07-24T00:44:23;102357.73;;;15.37;57.62
81905;BME280;71370;-33.792;151.032;2023-07-24T00:45:30;102356.78;;;15.45;57.88
81905;BME280;71370;-33.792;151.032;2023-07-24T00:46:37;102354.61;;;15.51;57.97
81905;BME280;71370;-33.792;151.032;2023-07-24T00:47:45;102351.70;;;15.59;57.57
81905;BME280;71370;-33.792;151.032;2023-07-24T00:48:52;102352.70;;;15.65;57.40
81905;BME280;71370;-33.792;151.032;2023-07-24T00:50:00;102354.44;;;15.71;57.58
81905;BME280;71370;-33.792;151.032;2023-07-24T00:51:07;102353.16;;;15.78;57.28
81905;BME280;71370;-33.792;151.032;2023-07-24T00:52:15;102352.40;;;15.83;56.32
81905;BME280;71370;-33.792;151.032;2023-07-24T00:53:22;102354.31;;;15.86;56.76
81905;BME280;71370;-33.792;151.032;2023-07-24T00:54:31;102351.45;;;15.91;57.55
81905;BME280;71370;-33.792;151.032;2023-07-24T00:55:40;102354.57;;;15.97;57.08
81905;BME280;71370;-33.792;151.032;2023-07-24T00:56:47;102350.79;;;16.03;56.89
81905;BME280;71370;-33.792;151.032;2023-07-24T00:57:54;102351.80;;;16.08;56.66
81905;BME280;71370;-33.792;151.032;2023-07-24T00:59:02;102354.42;;;16.12;56.10
81905;BME280;71370;-33.792;151.032;2023-07-24T01:00:10;102352.09;;;16.12;56.03
81905;BME280;71370;-33.792;151.032;2023-07-24T01:01:17;102354.06;;;16.12;55.65
81905;BME280;71370;-33.792;151.032;2023-07-24T01:02:25;102346.21;;;16.17;56.03
81905;BME280;71370;-33.792;151.032;2023-07-24T01:03:34;102344.40;;;16.20;56.22
81905;BME280;71370;-33.792;151.032;2023-07-24T01:04:42;102345.58;;;16.26;55.51
81905;BME280;71370;-33.792;151.032;2023-07-24T01:05:50;102344.61;;;16.32;55.03
81905;BME280;71370;-33.792;151.032;2023-07-24T01:06:57;102342.27;;;16.34;55.05
81905;BME280;71370;-33.792;151.032;2023-07-24T01:08:05;102337.43;;;16.39;54.76
81905;BME280;71370;-33.792;151.032;2023-07-24T01:09:12;102340.24;;;16.41;54.45
81905;BME280;71370;-33.792;151.032;2023-07-24T01:10:19;102341.30;;;16.43;54.79
81905;BME280;71370;-33.792;151.032;2023-07-24T01:11:36;102337.39;;;16.42;55.22
81905;BME280;71370;-33.792;151.032;2023-07-24T01:14:52;102337.44;;;16.38;55.43
81905;BME280;71370;-33.792;151.032;2023-07-24T01:16:09;102335.38;;;16.46;54.39
81905;BME280;71370;-33.792;151.032;2023-07-24T01:17:24;102333.23;;;16.48;54.27
81905;BME280;71370;-33.792;151.032;2023-07-24T01:18:32;102337.67;;;16.48;54.40
81905;BME280;71370;-33.792;151.032;2023-07-24T01:19:47;102339.42;;;16.49;54.39
81905;BME280;71370;-33.792;151.032;2023-07-24T01:20:57;102332.29;;;16.53;54.03
81905;BME280;71370;-33.792;151.032;2023-07-24T01:23:50;102330.36;;;16.50;54.09
81905;BME280;71370;-33.792;151.032;2023-07-24T01:25:09;102334.09;;;16.51;53.59
81905;BME280;71370;-33.792;151.032;2023-07-24T01:26:17;102326.98;;;16.51;52.96
81905;BME280;71370;-33.792;151.032;2023-07-24T01:27:24;102327.68;;;16.52;53.17
81905;BME280;71370;-33.792;151.032;2023-07-24T01:28:32;102331.05;;;16.53;53.07
81905;BME280;71370;-33.792;151.032;2023-07-24T01:29:39;102329.30;;;16.50;52.77
81905;BME280;71370;-33.792;151.032;2023-07-24T01:30:46;102325.27;;;16.46;52.64
81905;BME280;71370;-33.792;151.032;2023-07-24T01:31:53;102324.79;;;16.42;52.92
81905;BME280;71370;-33.792;151.032;2023-07-24T01:33:00;102327.33;;;16.37;52.99
81905;BME280;71370;-33.792;151.032;2023-07-24T01:34:07;102323.29;;;16.34;53.30
81905;BME280;71370;-33.792;151.032;2023-07-24T01:35:14;102321.70;;;16.32;53.41
81905;BME280;71370;-33.792;151.032;2023-07-24T01:36:22;102317.83;;;16.30;53.14
81905;BME280;71370;-33.792;151.032;2023-07-24T01:37:30;102316.24;;;16.28;53.29
81905;BME280;71370;-33.792;151.032;2023-07-24T01:38:38;102318.05;;;16.26;53.47
81905;BME280;71370;-33.792;151.032;2023-07-24T01:39:45;102311.52;;;16.24;53.20
81905;BME280;71370;-33.792;151.032;2023-07-24T01:40:54;102310.64;;;16.22;53.60
81905;BME280;71370;-33.792;151.032;2023-07-24T01:42:02;102309.05;;;16.21;53.92
81905;BME280;71370;-33.792;151.032;2023-07-24T01:43:10;102311.72;;;16.22;54.05
81905;BME280;71370;-33.792;151.032;2023-07-24T01:44:17;102310.09;;;16.23;53.99
81905;BME280;71370;-33.792;151.032;2023-07-24T01:45:24;102309.56;;;16.24;54.04
81905;BME280;71370;-33.792;151.032;2023-07-24T01:46:31;102304.40;;;16.25;53.84
81905;BME280;71370;-33.792;151.032;2023-07-24T01:47:39;102308.47;;;16.25;53.87
81905;BME280;71370;-33.792;151.032;2023-07-24T01:48:46;102307.42;;;16.25;53.96
81905;BME280;71370;-33.792;151.032;2023-07-24T01:49:53;102305.48;;;16.23;54.23
81905;BME280;71370;-33.792;151.032;2023-07-24T01:51:00;102306.02;;;16.22;54.10
81905;BME280;71370;-33.792;151.032;2023-07-24T01:52:07;102307.47;;;16.20;54.41
81905;BME280;71370;-33.792;151.032;2023-07-24T01:53:14;102309.07;;;16.20;54.52
81905;BME280;71370;-33.792;151.032;2023-07-24T01:54:21;102309.27;;;16.19;54.39
81905;BME280;71370;-33.792;151.032;2023-07-24T01:55:28;102306.27;;;16.17;54.56
81905;BME280;71370;-33.792;151.032;2023-07-24T01:56:36;102305.39;;;16.15;54.17
81905;BME280;71370;-33.792;151.032;2023-07-24T01:57:45;102303.85;;;16.12;53.65
81905;BME280;71370;-33.792;151.032;2023-07-24T01:58:52;102301.40;;;16.08;53.21
81905;BME280;71370;-33.792;151.032;2023-07-24T01:59:59;102301.98;;;16.04;53.14
81905;BME280;71370;-33.792;151.032;2023-07-24T02:01:06;102297.60;;;15.99;53.21
81905;BME280;71370;-33.792;151.032;2023-07-24T02:02:13;102296.05;;;15.95;53.31
81905;BME280;71370;-33.792;151.032;2023-07-24T02:03:20;102297.50;;;15.91;53.50
81905;BME280;71370;-33.792;151.032;2023-07-24T02:04:27;102294.89;;;15.88;53.34
81905;BME280;71370;-33.792;151.032;2023-07-24T02:05:35;102298.45;;;15.85;53.62
81905;BME280;71370;-33.792;151.032;2023-07-24T02:06:42;102298.64;;;15.84;53.81
81905;BME280;71370;-33.792;151.032;2023-07-24T02:07:49;102297.94;;;15.84;54.09
81905;BME280;71370;-33.792;151.032;2023-07-24T02:08:56;102294.05;;;15.82;53.83
81905;BME280;71370;-33.792;151.032;2023-07-24T02:10:03;102293.70;;;15.81;54.16
81905;BME280;71370;-33.792;151.032;2023-07-24T02:11:10;102293.18;;;15.80;54.18
81905;BME280;71370;-33.792;151.032;2023-07-24T02:12:17;102290.71;;;15.79;54.23
81905;BME280;71370;-33.792;151.032;2023-07-24T02:13:24;102288.05;;;15.79;54.34
81905;BME280;71370;-33.792;151.032;2023-07-24T02:14:31;102289.48;;;15.78;54.39
81905;BME280;71370;-33.792;151.032;2023-07-24T02:15:38;102289.86;;;15.77;54.63
81905;BME280;71370;-33.792;151.032;2023-07-24T02:16:46;102284.89;;;15.77;54.52
81905;BME280;71370;-33.792;151.032;2023-07-24T02:17:54;102288.79;;;15.77;54.63
81905;BME280;71370;-33.792;151.032;2023-07-24T02:19:01;102283.83;;;15.76;54.79
81905;BME280;71370;-33.792;151.032;2023-07-24T02:20:08;102284.02;;;15.75;55.05
81905;BME280;71370;-33.792;151.032;2023-07-24T02:21:15;102280.64;;;15.76;55.25
81905;BME280;71370;-33.792;151.032;2023-07-24T02:22:23;102281.16;;;15.78;55.22
81905;BME280;71370;-33.792;151.032;2023-07-24T02:23:31;102283.64;;;15.78;55.25
81905;BME280;71370;-33.792;151.032;2023-07-24T02:24:38;102282.20;;;15.79;55.14
81905;BME280;71370;-33.792;151.032;2023-07-24T02:25:45;102278.64;;;15.80;54.95
81905;BME280;71370;-33.792;151.032;2023-07-24T02:26:52;102277.41;;;15.81;54.79
81905;BME280;71370;-33.792;151.032;2023-07-24T02:27:59;102275.08;;;15.82;54.97
81905;BME280;71370;-33.792;151.032;2023-07-24T02:29:06;102277.19;;;15.84;54.70
81905;BME280;71370;-33.792;151.032;2023-07-24T02:30:14;102277.52;;;15.86;54.59
81905;BME280;71370;-33.792;151.032;2023-07-24T02:31:21;102279.98;;;15.87;54.36
81905;BME280;71370;-33.792;151.032;2023-07-24T02:32:28;102278.38;;;15.88;53.87
81905;BME280;71370;-33.792;151.032;2023-07-24T02:33:35;102280.50;;;15.88;53.98
81905;BME280;71370;-33.792;151.032;2023-07-24T02:34:42;102271.99;;;15.89;53.81
81905;BME280;71370;-33.792;151.032;2023-07-24T02:35:52;102275.17;;;15.90;53.94
81905;BME280;71370;-33.792;151.032;2023-07-24T02:36:59;102274.10;;;15.90;53.92
81905;BME280;71370;-33.792;151.032;2023-07-24T02:38:06;102271.25;;;15.92;53.99
81905;BME280;71370;-33.792;151.032;2023-07-24T02:39:13;102274.95;;;15.93;53.55
81905;BME280;71370;-33.792;151.032;2023-07-24T02:40:20;102272.81;;;15.94;53.40
81905;BME280;71370;-33.792;151.032;2023-07-24T02:41:28;102268.02;;;15.94;53.14
81905;BME280;71370;-33.792;151.032;2023-07-24T02:42:34;102271.21;;;15.95;53.43
81905;BME280;71370;-33.792;151.032;2023-07-24T02:43:41;102271.23;;;15.95;53.22
81905;BME280;71370;-33.792;151.032;2023-07-24T02:44:49;102271.55;;;15.97;53.42
81905;BME280;71370;-33.792;151.032;2023-07-24T02:46:00;102269.06;;;15.96;53.04
81905;BME280;71370;-33.792;151.032;2023-07-24T02:47:08;102264.29;;;15.95;53.00
81905;BME280;71370;-33.792;151.032;2023-07-24T02:48:15;102265.52;;;15.95;53.15
81905;BME280;71370;-33.792;151.032;2023-07-24T02:49:22;102264.30;;;15.93;52.95
81905;BME280;71370;-33.792;151.032;2023-07-24T02:50:30;102260.23;;;15.93;53.10
81905;BME280;71370;-33.792;151.032;2023-07-24T02:51:37;102258.45;;;15.93;53.04
81905;BME280;71370;-33.792;151.032;2023-07-24T02:52:44;102258.98;;;15.93;53.24
81905;BME280;71370;-33.792;151.032;2023-07-24T02:53:53;102260.04;;;15.94;53.34
81905;BME280;71370;-33.792;151.032;2023-07-24T02:55:01;102254.01;;;15.94;53.39
81905;BME280;71370;-33.792;151.032;2023-07-24T02:56:08;102257.73;;;15.96;53.29
81905;BME280;71370;-33.792;151.032;2023-07-24T02:57:15;102258.77;;;15.96;53.19
81905;BME280;71370;-33.792;151.032;2023-07-24T02:58:22;102250.98;;;15.96;52.94
81905;BME280;71370;-33.792;151.032;2023-07-24T02:59:30;102254.89;;;15.95;53.13
81905;BME280;71370;-33.792;151.032;2023-07-24T03:00:38;102252.04;;;15.96;53.21
81905;BME280;71370;-33.792;151.032;2023-07-24T03:01:45;102252.56;;;15.96;53.11
81905;BME280;71370;-33.792;151.032;2023-07-24T03:02:55;102256.29;;;15.97;53.41
81905;BME280;71370;-33.792;151.032;2023-07-24T03:04:02;102249.69;;;16.00;53.24
81905;BME280;71370;-33.792;151.032;2023-07-24T03:05:11;102249.10;;;16.04;53.62
81905;BME280;71370;-33.792;151.032;2023-07-24T03:06:18;102249.02;;;16.11;53.90
81905;BME280;71370;-33.792;151.032;2023-07-24T03:07:25;102249.46;;;16.18;53.71
81905;BME280;71370;-33.792;151.032;2023-07-24T03:08:33;102248.85;;;16.25;53.69
81905;BME280;71370;-33.792;151.032;2023-07-24T03:09:40;102245.02;;;16.33;53.26
81905;BME280;71370;-33.792;151.032;2023-07-24T03:10:47;102246.16;;;16.39;52.70
81905;BME280;71370;-33.792;151.032;2023-07-24T03:11:54;102245.38;;;16.45;52.45
81905;BME280;71370;-33.792;151.032;2023-07-24T03:13:01;102243.38;;;16.49;52.58
81905;BME280;71370;-33.792;151.032;2023-07-24T03:14:08;102246.16;;;16.53;52.34
81905;BME280;71370;-33.792;151.032;2023-07-24T03:15:15;102243.99;;;16.56;52.05
81905;BME280;71370;-33.792;151.032;2023-07-24T03:16:22;102237.58;;;16.58;52.46
81905;BME280;71370;-33.792;151.032;2023-07-24T03:17:29;102244.98;;;16.60;52.39
81905;BME280;71370;-33.792;151.032;2023-07-24T03:18:36;102244.80;;;16.61;52.04
81905;BME280;71370;-33.792;151.032;2023-07-24T03:19:43;102241.80;;;16.60;51.05
81905;BME280;71370;-33.792;151.032;2023-07-24T03:20:51;102242.71;;;16.58;51.12
81905;BME280;71370;-33.792;151.032;2023-07-24T03:21:58;102240.26;;;16.55;51.10
81905;BME280;71370;-33.792;151.032;2023-07-24T03:23:05;102240.27;;;16.54;51.44
81905;BME280;71370;-33.792;151.032;2023-07-24T03:24:12;102240.14;;;16.52;51.12
81905;BME280;71370;-33.792;151.032;2023-07-24T03:25:19;102242.10;;;16.51;50.95
81905;BME280;71370;-33.792;151.032;2023-07-24T03:26:26;102240.89;;;16.48;51.42
81905;BME280;71370;-33.792;151.032;2023-07-24T03:27:33;102239.48;;;16.48;51.08
81905;BME280;71370;-33.792;151.032;2023-07-24T03:28:40;102239.67;;;16.47;51.27
81905;BME280;71370;-33.792;151.032;2023-07-24T03:29:47;102236.11;;;16.47;51.44
81905;BME280;71370;-33.792;151.032;2023-07-24T03:30:54;102238.06;;;16.48;51.63
81905;BME280;71370;-33.792;151.032;2023-07-24T03:32:02;102238.23;;;16.49;51.42
81905;BME280;71370;-33.792;151.032;2023-07-24T03:33:09;102235.02;;;16.51;51.37
81905;BME280;71370;-33.792;151.032;2023-07-24T03:34:18;102235.70;;;16.52;51.73
81905;BME280;71370;-33.792;151.032;2023-07-24T03:35:25;102236.20;;;16.55;51.80
81905;BME280;71370;-33.792;151.032;2023-07-24T03:36:32;102233.45;;;16.60;51.35
81905;BME280;71370;-33.792;151.032;2023-07-24T03:37:41;102236.25;;;16.63;51.32
81905;BME280;71370;-33.792;151.032;2023-07-24T03:38:48;102236.94;;;16.65;50.53
81905;BME280;71370;-33.792;151.032;2023-07-24T03:39:55;102233.55;;;16.65;50.60
81905;BME280;71370;-33.792;151.032;2023-07-24T03:41:02;102234.11;;;16.64;50.66
81905;BME280;71370;-33.792;151.032;2023-07-24T03:42:23;102233.05;;;16.63;51.05
81905;BME280;71370;-33.792;151.032;2023-07-24T03:43:31;102235.71;;;16.63;50.96
81905;BME280;71370;-33.792;151.032;2023-07-24T03:44:41;102236.93;;;16.65;51.22
81905;BME280;71370;-33.792;151.032;2023-07-24T03:45:49;102237.96;;;16.66;51.19
81905;BME280;71370;-33.792;151.032;2023-07-24T03:46:56;102235.09;;;16.69;50.82
81905;BME280;71370;-33.792;151.032;2023-07-24T03:48:04;102237.30;;;16.75;51.07
81905;BME280;71370;-33.792;151.032;2023-07-24T03:49:11;102234.39;;;16.82;50.85
81905;BME280;71370;-33.792;151.032;2023-07-24T03:50:18;102234.13;;;16.88;51.28
81905;BME280;71370;-33.792;151.032;2023-07-24T03:51:25;102232.21;;;16.96;50.82
81905;BME280;71370;-33.792;151.032;2023-07-24T03:52:32;102235.13;;;17.03;49.46
81905;BME280;71370;-33.792;151.032;2023-07-24T03:53:39;102235.02;;;17.10;49.73
81905;BME280;71370;-33.792;151.032;2023-07-24T03:54:46;102236.67;;;17.17;49.58
81905;BME280;71370;-33.792;151.032;2023-07-24T03:55:54;102236.39;;;17.23;48.93
81905;BME280;71370;-33.792;151.032;2023-07-24T03:57:01;102239.33;;;17.28;49.06
81905;BME280;71370;-33.792;151.032;2023-07-24T03:58:08;102237.30;;;17.31;49.07
81905;BME280;71370;-33.792;151.032;2023-07-24T03:59:15;102234.77;;;17.35;48.72
81905;BME280;71370;-33.792;151.032;2023-07-24T04:00:23;102238.09;;;17.38;48.69
81905;BME280;71370;-33.792;151.032;2023-07-24T04:01:30;102236.95;;;17.42;48.57
81905;BME280;71370;-33.792;151.032;2023-07-24T04:02:37;102238.48;;;17.45;48.63
81905;BME280;71370;-33.792;151.032;2023-07-24T04:03:45;102231.29;;;17.49;48.47
81905;BME280;71370;-33.792;151.032;2023-07-24T04:04:52;102231.40;;;17.53;48.07
81905;BME280;71370;-33.792;151.032;2023-07-24T04:06:00;102232.04;;;17.57;47.95
81905;BME280;71370;-33.792;151.032;2023-07-24T04:07:07;102234.61;;;17.63;47.42
81905;BME280;71370;-33.792;151.032;2023-07-24T04:08:14;102230.80;;;17.67;47.59
81905;BME280;71370;-33.792;151.032;2023-07-24T04:09:21;102231.60;;;17.71;47.38
81905;BME280;71370;-33.792;151.032;2023-07-24T04:10:29;102231.71;;;17.75;47.39
81905;BME280;71370;-33.792;151.032;2023-07-24T04:11:37;102232.52;;;17.78;47.37
81905;BME280;71370;-33.792;151.032;2023-07-24T04:12:44;102236.16;;;17.84;47.41
81905;BME280;71370;-33.792;151.032;2023-07-24T04:13:51;102230.70;;;17.91;47.38
81905;BME280;71370;-33.792;151.032;2023-07-24T04:14:58;102234.70;;;17.97;47.17
81905;BME280;71370;-33.792;151.032;2023-07-24T04:16:05;102237.51;;;17.98;47.24
81905;BME280;71370;-33.792;151.032;2023-07-24T04:17:12;102232.40;;;17.95;46.27
81905;BME280;71370;-33.792;151.032;2023-07-24T04:18:19;102238.02;;;17.90;46.57
81905;BME280;71370;-33.792;151.032;2023-07-24T04:19:29;102240.77;;;17.86;45.97
81905;BME280;71370;-33.792;151.032;2023-07-24T04:20:37;102232.27;;;17.82;45.23
81905;BME280;71370;-33.792;151.032;2023-07-24T04:21:44;102233.79;;;17.78;45.89
81905;BME280;71370;-33.792;151.032;2023-07-24T04:22:51;102237.80;;;17.72;46.47
81905;BME280;71370;-33.792;151.032;2023-07-24T04:23:58;102232.75;;;17.66;46.54
81905;BME280;71370;-33.792;151.032;2023-07-24T04:25:05;102236.41;;;17.62;46.96
81905;BME280;71370;-33.792;151.032;2023-07-24T04:26:13;102237.58;;;17.56;46.80
81905;BME280;71370;-33.792;151.032;2023-07-24T04:27:20;102235.22;;;17.49;47.40
81905;BME280;71370;-33.792;151.032;2023-07-24T04:28:27;102241.00;;;17.44;47.37
81905;BME280;71370;-33.792;151.032;2023-07-24T04:29:34;102240.38;;;17.39;47.76
81905;BME280;71370;-33.792;151.032;2023-07-24T04:30:41;102238.69;;;17.34;47.80
81905;BME280;71370;-33.792;151.032;2023-07-24T04:31:48;102241.98;;;17.28;47.77
81905;BME280;71370;-33.792;151.032;2023-07-24T04:32:55;102241.70;;;17.24;47.99
81905;BME280;71370;-33.792;151.032;2023-07-24T04:34:02;102242.16;;;17.19;47.78
81905;BME280;71370;-33.792;151.032;2023-07-24T04:35:09;102241.70;;;17.13;47.91
81905;BME280;71370;-33.792;151.032;2023-07-24T04:36:16;102238.23;;;17.08;48.11
81905;BME280;71370;-33.792;151.032;2023-07-24T04:37:24;102239.02;;;17.05;48.10
81905;BME280;71370;-33.792;151.032;2023-07-24T04:38:31;102236.79;;;17.00;48.29
81905;BME280;71370;-33.792;151.032;2023-07-24T04:39:41;102240.01;;;16.98;48.77
81905;BME280;71370;-33.792;151.032;2023-07-24T04:40:48;102237.56;;;16.96;48.77
81905;BME280;71370;-33.792;151.032;2023-07-24T04:41:55;102239.38;;;16.93;48.81
81905;BME280;71370;-33.792;151.032;2023-07-24T04:43:02;102239.08;;;16.89;48.87
81905;BME280;71370;-33.792;151.032;2023-07-24T04:44:10;102238.74;;;16.88;48.83
81905;BME280;71370;-33.792;151.032;2023-07-24T04:45:17;102237.72;;;16.85;48.93
81905;BME280;71370;-33.792;151.032;2023-07-24T04:46:24;102238.80;;;16.84;49.15
81905;BME280;71370;-33.792;151.032;2023-07-24T04:47:31;102241.48;;;16.81;49.43
81905;BME280;71370;-33.792;151.032;2023-07-24T04:48:38;102239.55;;;16.79;49.71
81905;BME280;71370;-33.792;151.032;2023-07-24T04:49:45;102244.39;;;16.77;49.86
81905;BME280;71370;-33.792;151.032;2023-07-24T04:50:56;102246.36;;;16.75;50.14
81905;BME280;71370;-33.792;151.032;2023-07-24T04:52:04;102241.98;;;16.71;49.94
81905;BME280;71370;-33.792;151.032;2023-07-24T04:53:11;102245.77;;;16.67;50.09
81905;BME280;71370;-33.792;151.032;2023-07-24T04:54:22;102244.95;;;16.63;49.56
81905;BME280;71370;-33.792;151.032;2023-07-24T04:55:29;102245.00;;;16.59;49.64
81905;BME280;71370;-33.792;151.032;2023-07-24T04:56:36;102246.27;;;16.58;49.69
81905;BME280;71370;-33.792;151.032;2023-07-24T04:57:43;102241.29;;;16.58;50.04
81905;BME280;71370;-33.792;151.032;2023-07-24T04:58:50;102243.92;;;16.60;50.18
81905;BME280;71370;-33.792;151.032;2023-07-24T04:59:57;102241.06;;;16.61;50.19
81905;BME280;71370;-33.792;151.032;2023-07-24T05:01:05;102240.88;;;16.61;50.19
81905;BME280;71370;-33.792;151.032;2023-07-24T05:02:12;102243.37;;;16.61;50.20
81905;BME280;71370;-33.792;151.032;2023-07-24T05:03:19;102243.20;;;16.61;50.18
81905;BME280;71370;-33.792;151.032;2023-07-24T05:04:26;102242.48;;;16.61;50.57
81905;BME280;71370;-33.792;151.032;2023-07-24T05:05:33;102242.48;;;16.62;50.42
81905;BME280;71370;-33.792;151.032;2023-07-24T05:06:40;102243.00;;;16.62;50.61
81905;BME280;71370;-33.792;151.032;2023-07-24T05:07:47;102243.90;;;16.62;50.72
81905;BME280;71370;-33.792;151.032;2023-07-24T05:08:54;102243.55;;;16.62;50.49
81905;BME280;71370;-33.792;151.032;2023-07-24T05:10:01;102243.73;;;16.61;50.43
81905;BME280;71370;-33.792;151.032;2023-07-24T05:11:09;102243.90;;;16.61;50.22
81905;BME280;71370;-33.792;151.032;2023-07-24T05:12:16;102243.58;;;16.59;49.93
81905;BME280;71370;-33.792;151.032;2023-07-24T05:13:23;102246.46;;;16.58;49.85
81905;BME280;71370;-33.792;151.032;2023-07-24T05:14:30;102243.29;;;16.55;50.28
81905;BME280;71370;-33.792;151.032;2023-07-24T05:15:37;102245.42;;;16.54;50.37
81905;BME280;71370;-33.792;151.032;2023-07-24T05:16:44;102245.25;;;16.54;50.62
81905;BME280;71370;-33.792;151.032;2023-07-24T05:17:51;102247.05;;;16.53;50.30
81905;BME280;71370;-33.792;151.032;2023-07-24T05:18:58;102244.39;;;16.52;50.22
81905;BME280;71370;-33.792;151.032;2023-07-24T05:20:06;102244.23;;;16.50;50.40
81905;BME280;71370;-33.792;151.032;2023-07-24T05:21:13;102247.27;;;16.49;50.40
81905;BME280;71370;-33.792;151.032;2023-07-24T05:22:20;102248.54;;;16.48;50.63
81905;BME280;71370;-33.792;151.032;2023-07-24T05:23:27;102245.18;;;16.47;50.56
81905;BME280;71370;-33.792;151.032;2023-07-24T05:24:34;102248.02;;;16.46;50.88
81905;BME280;71370;-33.792;151.032;2023-07-24T05:25:41;102249.12;;;16.44;50.68
81905;BME280;71370;-33.792;151.032;2023-07-24T05:26:49;102248.26;;;16.43;50.34
81905;BME280;71370;-33.792;151.032;2023-07-24T05:27:56;102251.67;;;16.40;50.42
81905;BME280;71370;-33.792;151.032;2023-07-24T05:29:02;102251.69;;;16.38;50.44
81905;BME280;71370;-33.792;151.032;2023-07-24T05:30:10;102255.08;;;16.36;50.59
81905;BME280;71370;-33.792;151.032;2023-07-24T05:31:17;102250.84;;;16.34;50.92
81905;BME280;71370;-33.792;151.032;2023-07-24T05:32:24;102254.23;;;16.33;50.76
81905;BME280;71370;-33.792;151.032;2023-07-24T05:33:32;102254.08;;;16.32;50.60
81905;BME280;71370;-33.792;151.032;2023-07-24T05:34:39;102258.89;;;16.30;50.82
81905;BME280;71370;-33.792;151.032;2023-07-24T05:35:46;102253.05;;;16.28;50.72
81905;BME280;71370;-33.792;151.032;2023-07-24T05:36:53;102257.87;;;16.27;50.68
81905;BME280;71370;-33.792;151.032;2023-07-24T05:38:00;102261.09;;;16.24;50.88
81905;BME280;71370;-33.792;151.032;2023-07-24T05:39:07;102260.57;;;16.23;50.90
81905;BME280;71370;-33.792;151.032;2023-07-24T05:40:14;102259.19;;;16.21;50.86
81905;BME280;71370;-33.792;151.032;2023-07-24T05:41:21;102262.21;;;16.21;50.87
81905;BME280;71370;-33.792;151.032;2023-07-24T05:42:28;102260.98;;;16.19;51.18
81905;BME280;71370;-33.792;151.032;2023-07-24T05:43:35;102262.42;;;16.18;51.26